Time;durP1;ratioP1;P1;durP2;ratioP2;P2;SDS_P1;SDS_P2;PMS_P1;PMS_P2;Temp;Humidity;BMP_temperature;BMP_pressure;BME280_temperature;BME280_humidity;BME280_pressure;Samples;Min_cycle;Max_cycle;Signal;HPM_P1;HPM_P2
2024/01/08 00:02:08;;;;;;;1.33;1.27;;;;;;;-1.49;100.00;100879.50;5053421;28;20224;-62
2024/01/08 00:04:33;;;;;;;2.17;1.30;;;;;;;-1.49;100.00;100882.03;5032163;28;20230;-62
2024/01/08 00:06:58;;;;;;;1.43;1.33;;;;;;;-1.46;100.00;100892.13;5063690;28;20190;-62
2024/01/08 00:09:24;;;;;;;2.13;1.30;;;;;;;-1.48;100.00;100877.81;5030497;28;20194;-62
2024/01/08 00:11:49;;;;;;;1.53;1.43;;;;;;;-1.50;100.00;100884.50;5044929;28;20223;-62
2024/01/08 00:14:15;;;;;;;1.30;1.20;;;;;;;-1.49;100.00;100876.13;5031397;28;20194;-62
2024/01/08 00:16:40;;;;;;;1.67;1.30;;;;;;;-1.50;100.00;100882.84;5032204;28;20189;-63
2024/01/08 00:19:05;;;;;;;1.40;1.30;;;;;;;-1.48;100.00;100882.84;5031768;28;20638;-62
2024/01/08 00:21:31;;;;;;;1.57;1.20;;;;;;;-1.52;100.00;100881.16;5044409;28;20303;-62
2024/01/08 00:23:56;;;;;;;2.20;1.47;;;;;;;-1.50;100.00;100882.84;5040778;28;20182;-62
2024/01/08 00:26:22;;;;;;;1.50;1.40;;;;;;;-1.52;100.00;100884.50;5032225;28;20202;-62
2024/01/08 00:28:47;;;;;;;2.10;1.93;;;;;;;-1.53;100.00;100887.84;5034955;28;20656;-62
2024/01/08 00:31:12;;;;;;;4.07;1.37;;;;;;;-1.52;100.00;100879.47;5011321;28;20777;-62
2024/01/08 00:33:38;;;;;;;1.73;1.63;;;;;;;-1.50;100.00;100875.28;5040171;28;20631;-62
2024/01/08 00:36:03;;;;;;;1.33;1.23;;;;;;;-1.42;100.00;100879.56;5030267;28;20185;-62
2024/01/08 00:38:29;;;;;;;1.60;1.50;;;;;;;-1.44;99.30;100876.16;5029913;28;20170;-62
2024/01/08 00:40:54;;;;;;;1.10;1.10;;;;;;;-1.50;98.45;100885.38;5051821;28;20572;-62
2024/01/08 00:43:19;;;;;;;1.50;1.40;;;;;;;-1.54;98.85;100882.81;5034372;28;20210;-62
2024/01/08 00:45:44;;;;;;;2.50;1.27;;;;;;;-1.60;100.00;100881.09;5031231;28;20331;-62
2024/01/08 00:48:11;;;;;;;1.57;1.47;;;;;;;-1.52;100.00;100878.63;5031348;28;20200;-62
2024/01/08 00:50:37;;;;;;;1.57;1.40;;;;;;;-1.56;99.82;100871.84;5022354;28;20233;-62
2024/01/08 00:53:02;;;;;;;1.60;1.50;;;;;;;-1.54;100.00;100878.63;5053298;28;20178;-62
2024/01/08 00:55:28;;;;;;;1.33;1.20;;;;;;;-1.48;100.00;100877.81;5030234;28;20546;-62
2024/01/08 00:57:54;;;;;;;1.57;1.33;;;;;;;-1.54;99.43;100872.72;5030291;28;20652;-62
2024/01/08 01:00:20;;;;;;;1.17;1.13;;;;;;;-1.53;100.00;100881.97;5025770;28;20182;-61
2024/01/08 01:02:45;;;;;;;2.23;1.47;;;;;;;-1.49;100.00;100873.59;5044223;28;20209;-62
2024/01/08 01:05:10;;;;;;;1.57;1.40;;;;;;;-1.48;99.71;100878.69;5029703;28;20236;-62
2024/01/08 01:07:36;;;;;;;1.47;1.37;;;;;;;-1.53;99.44;100876.94;5041046;28;20213;-62
2024/01/08 01:10:01;;;;;;;1.73;1.43;;;;;;;-1.48;100.00;100877.81;5031166;28;20526;-62
2024/01/08 01:12:27;;;;;;;1.67;1.57;;;;;;;-1.40;100.00;100872.81;5036119;28;20567;-63
2024/01/08 01:14:52;;;;;;;1.40;1.30;;;;;;;-1.36;100.00;100882.13;5018365;28;20174;-62
2024/01/08 01:17:17;;;;;;;1.67;1.47;;;;;;;-1.34;100.00;100882.94;5031345;28;20188;-62
2024/01/08 01:19:43;;;;;;;1.90;1.53;;;;;;;-1.43;100.00;100886.25;5030897;28;20188;-62
2024/01/08 01:22:08;;;;;;;2.37;1.33;;;;;;;-1.43;100.00;100883.72;5038464;28;20721;-62
2024/01/08 01:24:33;;;;;;;1.90;1.73;;;;;;;-1.41;100.00;100888.81;5031217;28;20243;-61
2024/01/08 01:26:59;;;;;;;1.33;1.23;;;;;;;-1.50;100.00;100880.34;5029727;28;20271;-61
2024/01/08 01:29:24;;;;;;;1.60;1.50;;;;;;;-1.50;100.00;100884.50;5031104;28;20197;-61
2024/01/08 01:31:49;;;;;;;1.43;1.30;;;;;;;-1.50;100.00;100884.50;5036891;28;20303;-61
2024/01/08 01:34:18;;;;;;;1.47;1.37;;;;;;;-1.43;100.00;100885.44;5034351;28;20641;-62
2024/01/08 01:36:45;;;;;;;1.80;1.70;;;;;;;-1.42;100.00;100887.94;5062587;28;20256;-62
2024/01/08 01:39:10;;;;;;;1.30;1.20;;;;;;;-1.41;100.00;100888.81;5017732;28;20520;-62
2024/01/08 01:41:36;;;;;;;1.50;1.40;;;;;;;-1.35;100.00;100889.69;5049035;28;20235;-63
2024/01/08 01:44:02;;;;;;;1.43;1.33;;;;;;;-1.42;100.00;100880.38;5037291;28;20265;-62
2024/01/08 01:46:41;;;;;;;1.40;1.30;;;;;;;-1.43;100.00;100888.78;5034592;28;20581;-64
2024/01/08 01:49:15;;;;;;;2.13;1.50;;;;;;;-1.40;100.00;100885.44;5025921;28;20178;-63
2024/01/08 01:51:42;;;;;;;2.13;1.47;;;;;;;-1.40;100.00;100888.81;5048680;28;20911;-62
2024/01/08 01:54:10;;;;;;;1.60;1.50;;;;;;;-1.42;100.00;100890.47;5036390;28;20264;-61
2024/01/08 01:56:36;;;;;;;1.50;1.40;;;;;;;-1.47;100.00;100882.88;5066769;28;20297;-62
2024/01/08 01:59:03;;;;;;;1.50;1.40;;;;;;;-1.44;100.00;100884.56;5066146;28;20178;-62
2024/01/08 02:01:29;;;;;;;2.00;1.30;;;;;;;-1.48;100.00;100882.84;5058438;28;20232;-62
2024/01/08 02:03:55;;;;;;;1.70;1.60;;;;;;;-1.42;100.00;100882.91;5032312;28;20678;-61
2024/01/08 02:06:22;;;;;;;1.40;1.30;;;;;;;-1.43;100.00;100890.47;5066637;28;20292;-62
2024/01/08 02:08:48;;;;;;;1.50;1.40;;;;;;;-1.39;100.00;100875.38;5034238;28;20185;-62
2024/01/08 02:11:15;;;;;;;1.67;1.57;;;;;;;-1.41;100.00;100886.28;5047412;28;20232;-61
2024/01/08 02:13:41;;;;;;;1.40;1.30;;;;;;;-1.36;100.00;100879.59;5045669;28;20520;-62
2024/01/08 02:16:06;;;;;;;1.37;1.27;;;;;;;-1.33;100.00;100884.66;5033927;28;20188;-62
2024/01/08 02:18:31;;;;;;;1.87;1.77;;;;;;;-1.35;100.00;100874.56;5034147;28;20269;-62
2024/01/08 02:20:56;;;;;;;1.50;1.40;;;;;;;-1.38;100.00;100884.59;5058786;28;20229;-62
2024/01/08 02:23:22;;;;;;;1.80;1.70;;;;;;;-1.46;100.00;100884.56;5041349;28;20182;-62
2024/01/08 02:25:47;;;;;;;2.07;1.57;;;;;;;-1.49;100.00;100881.16;5032812;28;20190;-61
2024/01/08 02:28:12;;;;;;;1.40;1.30;;;;;;;-1.54;100.00;100882.81;5031441;28;20182;-61
2024/01/08 02:30:38;;;;;;;1.73;1.60;;;;;;;-1.57;100.00;100882.81;5033513;28;20297;-62
2024/01/08 02:33:03;;;;;;;2.67;1.77;;;;;;;-1.58;100.00;100881.09;5055417;28;20193;-61
2024/01/08 02:35:29;;;;;;;2.90;1.57;;;;;;;-1.63;100.00;100876.84;5033925;28;20178;-61
2024/01/08 02:37:54;;;;;;;1.67;1.57;;;;;;;-1.62;100.00;100893.69;5032441;28;20281;-61
2024/01/08 02:40:19;;;;;;;1.50;1.40;;;;;;;-1.65;100.00;100886.09;5028290;28;20684;-61
2024/01/08 02:42:44;;;;;;;2.20;1.60;;;;;;;-1.60;100.00;100892.84;5060184;28;20273;-62
2024/01/08 02:45:10;;;;;;;2.00;1.73;;;;;;;-1.55;100.00;100889.56;5065386;28;20234;-61
2024/01/08 02:47:37;;;;;;;1.77;1.67;;;;;;;-1.62;100.00;100885.28;5033338;28;20675;-62
2024/01/08 02:50:06;;;;;;;1.90;1.80;;;;;;;-1.58;100.00;100887.00;5032392;28;20181;-62
2024/01/08 02:52:32;;;;;;;2.67;1.77;;;;;;;-1.65;100.00;100886.09;5062840;28;20206;-61
2024/01/08 02:54:57;;;;;;;2.00;1.80;;;;;;;-1.58;100.00;100884.47;5032230;28;20174;-62
2024/01/08 02:57:25;;;;;;;2.33;1.97;;;;;;;-1.59;100.00;100886.97;5065384;28;20209;-61
2024/01/08 02:59:50;;;;;;;4.17;1.80;;;;;;;-1.67;100.00;100875.13;5033534;28;20186;-62
2024/01/08 03:02:15;;;;;;;1.53;1.43;;;;;;;-1.65;100.00;100895.34;5051670;28;20736;-61
2024/01/08 03:04:41;;;;;;;2.80;1.63;;;;;;;-1.62;100.00;100887.81;5026413;28;20194;-62
2024/01/08 03:07:06;;;;;;;1.47;1.37;;;;;;;-1.62;100.00;100885.28;5064968;28;20275;-61
2024/01/08 03:09:31;;;;;;;1.70;1.60;;;;;;;-1.56;100.00;100887.00;5033401;28;20174;-62
2024/01/08 03:11:56;;;;;;;2.30;1.93;;;;;;;-1.56;100.00;100892.03;5039802;28;20224;-61
2024/01/08 03:14:22;;;;;;;1.43;1.33;;;;;;;-1.58;100.00;100886.16;5032721;28;20629;-61
2024/01/08 03:16:47;;;;;;;3.03;1.60;;;;;;;-1.67;100.00;100892.81;5032766;28;20220;-62
2024/01/08 03:19:12;;;;;;;2.03;1.83;;;;;;;-1.72;100.00;100888.56;5033001;28;20182;-61
2024/01/08 03:21:39;;;;;;;1.80;1.70;;;;;;;-1.74;100.00;100892.75;5055757;28;20209;-62
2024/01/08 03:24:05;;;;;;;2.20;1.60;;;;;;;-1.75;100.00;100881.78;5064932;28;20214;-61
2024/01/08 03:26:30;;;;;;;1.90;1.63;;;;;;;-1.72;100.00;100891.09;5032985;28;20348;-62
2024/01/08 03:28:55;;;;;;;1.77;1.67;;;;;;;-1.68;100.00;100892.78;5032744;28;20574;-62
2024/01/08 03:31:20;;;;;;;1.63;1.40;;;;;;;-1.69;100.00;100891.94;5043096;28;20227;-63
2024/01/08 03:33:46;;;;;;;1.73;1.50;;;;;;;-1.79;100.00;100885.13;5044155;28;20196;-62
2024/01/08 03:36:11;;;;;;;2.13;1.90;;;;;;;-1.74;100.00;100895.25;5033040;28;20185;-62
2024/01/08 03:38:37;;;;;;;2.17;1.73;;;;;;;-1.69;100.00;100901.19;5031532;28;20174;-62
2024/01/08 03:41:02;;;;;;;2.40;1.70;;;;;;;-1.68;100.00;100903.72;5037589;28;20305;-62
2024/01/08 03:43:27;;;;;;;2.10;1.90;;;;;;;-1.73;100.00;100890.22;5048581;28;20687;-62
2024/01/08 03:45:52;;;;;;;1.80;1.63;;;;;;;-1.73;100.00;100894.44;5032260;28;20229;-62
2024/01/08 03:48:18;;;;;;;2.30;1.90;;;;;;;-1.72;100.00;100896.13;5030866;28;20546;-62
2024/01/08 03:50:43;;;;;;;1.60;1.20;;;;;;;-1.74;100.00;100888.53;5036798;28;20255;-62
2024/01/08 03:53:08;;;;;;;1.70;1.60;;;;;;;-1.72;100.00;100891.91;5052850;28;20185;-61
2024/01/08 03:55:34;;;;;;;2.67;1.90;;;;;;;-1.71;100.00;100891.09;5032645;28;20187;-62
2024/01/08 03:57:59;;;;;;;1.70;1.30;;;;;;;-1.77;100.00;100905.31;5032523;28;20205;-61
2024/01/08 04:00:25;;;;;;;1.70;1.43;;;;;;;-1.87;100.00;100897.69;5059853;28;20224;-62
2024/01/08 04:02:50;;;;;;;1.80;1.70;;;;;;;-1.86;100.00;100894.31;5042863;28;20182;-62
2024/01/08 04:05:15;;;;;;;1.70;1.60;;;;;;;-1.90;100.00;100887.53;5032313;28;20220;-62
2024/01/08 04:07:41;;;;;;;2.90;1.90;;;;;;;-1.83;100.00;100893.50;5032147;28;20559;-62
2024/01/08 04:10:07;;;;;;;1.97;1.83;;;;;;;-1.81;100.00;100896.88;5022243;28;20228;-61
2024/01/08 04:12:33;;;;;;;1.67;1.57;;;;;;;-1.88;100.00;100898.50;5062574;28;20277;-61
2024/01/08 04:14:58;;;;;;;3.73;1.83;;;;;;;-1.88;100.00;100912.81;5030161;28;20320;-62
2024/01/08 04:17:26;;;;;;;2.70;1.83;;;;;;;-1.84;100.00;100899.38;5032317;28;20269;-62
2024/01/08 04:19:51;;;;;;;2.00;1.90;;;;;;;-1.78;100.00;100904.47;5031273;28;20220;-62
2024/01/08 04:22:16;;;;;;;1.70;1.60;;;;;;;-1.81;100.00;100906.97;5052928;28;20254;-62
2024/01/08 04:24:42;;;;;;;2.13;1.87;;;;;;;-1.83;100.00;100906.94;5031673;28;20653;-63
2024/01/08 04:27:07;;;;;;;1.77;1.60;;;;;;;-1.86;100.00;100906.94;5031533;28;20205;-62
2024/01/08 04:29:32;;;;;;;2.20;1.90;;;;;;;-1.88;100.00;100905.22;5030311;28;20193;-62
2024/01/08 04:31:57;;;;;;;1.77;1.67;;;;;;;-1.87;100.00;100910.28;5030411;28;20263;-62
2024/01/08 04:34:23;;;;;;;1.67;1.57;;;;;;;-1.86;100.00;100914.50;5033069;28;20277;-61
2024/01/08 04:36:48;;;;;;;2.00;1.90;;;;;;;-1.80;100.00;100913.69;5031715;28;20592;-61
2024/01/08 04:39:13;;;;;;;1.80;1.70;;;;;;;-1.80;100.00;100909.53;5031446;28;20225;-61
2024/01/08 04:41:39;;;;;;;1.97;1.70;;;;;;;-1.75;100.00;100908.69;5046777;28;20220;-61
2024/01/08 04:44:05;;;;;;;1.57;1.47;;;;;;;-1.75;100.00;100918.78;5037566;28;20186;-62
2024/01/08 04:46:30;;;;;;;2.47;2.07;;;;;;;-1.82;100.00;100907.81;5031577;28;20233;-62
2024/01/08 04:48:55;;;;;;;2.30;1.90;;;;;;;-1.81;100.00;100930.53;5035857;28;20185;-63
2024/01/08 04:51:25;;;;;;;1.57;1.47;;;;;;;-1.83;100.00;100918.72;5041875;28;20231;-62
2024/01/08 04:53:51;;;;;;;1.60;1.50;;;;;;;-1.79;100.00;100928.88;5034886;28;20221;-63
2024/01/08 04:56:24;;;;;;;2.37;1.50;;;;;;;-1.86;100.00;100918.69;5031824;28;20332;-63
2024/01/08 04:58:51;;;;;;;1.43;1.33;;;;;;;-1.82;100.00;100922.94;5029691;28;20181;-61
2024/01/08 05:01:16;;;;;;;1.33;1.23;;;;;;;-1.83;100.00;100937.22;5041051;28;20232;-62
2024/01/08 05:03:43;;;;;;;2.13;1.93;;;;;;;-1.85;100.00;100913.69;5042958;28;20623;-61
2024/01/08 05:06:09;;;;;;;1.83;1.73;;;;;;;-1.86;100.00;100929.63;5031544;28;20174;-62
2024/01/08 05:08:34;;;;;;;1.60;1.50;;;;;;;-1.86;100.00;100919.53;5031020;28;20542;-61
2024/01/08 05:11:00;;;;;;;1.97;1.87;;;;;;;-1.84;100.00;100917.03;5036157;28;20267;-61
2024/01/08 05:13:25;;;;;;;1.70;1.60;;;;;;;-1.80;100.00;100918.75;5047302;28;20574;-61
2024/01/08 05:15:51;;;;;;;1.53;1.43;;;;;;;-1.82;100.00;100925.47;5035060;28;20189;-62
2024/01/08 05:18:16;;;;;;;2.03;1.80;;;;;;;-1.86;100.00;100917.03;5033885;28;20186;-62
2024/01/08 05:20:41;;;;;;;2.80;1.90;;;;;;;-1.86;100.00;100923.72;5035609;28;20377;-66
2024/01/08 05:23:07;;;;;;;2.77;2.03;;;;;;;-1.85;100.00;100918.72;5056226;28;20182;-62
2024/01/08 05:25:34;;;;;;;2.77;1.87;;;;;;;-1.79;100.00;100918.78;5035295;28;20178;-61
2024/01/08 05:27:59;;;;;;;1.80;1.70;;;;;;;-1.80;100.00;100931.34;5033401;28;20281;-62
2024/01/08 05:30:24;;;;;;;1.80;1.70;;;;;;;-1.88;100.00;100927.94;5030834;28;20686;-62
2024/01/08 05:32:50;;;;;;;2.70;1.67;;;;;;;-1.87;100.00;100922.03;5046646;28;20635;-62
2024/01/08 05:35:15;;;;;;;2.00;1.90;;;;;;;-1.84;100.00;100924.59;5033805;28;20276;-62
2024/01/08 05:37:41;;;;;;;4.77;2.10;;;;;;;-1.80;100.00;100936.41;5033459;28;20190;-62
2024/01/08 05:40:07;;;;;;;2.17;2.07;;;;;;;-1.90;100.00;100930.41;5025672;28;20182;-62
2024/01/08 05:42:32;;;;;;;3.47;2.40;;;;;;;-1.85;100.00;100935.50;5064728;28;20202;-62
2024/01/08 05:44:57;;;;;;;2.27;2.07;;;;;;;-1.86;100.00;100933.81;5034218;28;20279;-62
2024/01/08 05:47:23;;;;;;;1.43;1.33;;;;;;;-1.89;100.00;100931.28;5034608;28;20547;-62
2024/01/08 05:49:49;;;;;;;2.20;2.00;;;;;;;-1.88;100.00;100938.00;5036857;28;20178;-62
2024/01/08 05:52:14;;;;;;;2.27;2.07;;;;;;;-1.89;100.00;100924.53;5045076;28;20222;-61
2024/01/08 05:54:39;;;;;;;2.27;2.10;;;;;;;-1.80;100.00;100937.25;5034824;28;20182;-61
2024/01/08 05:57:04;;;;;;;3.27;2.10;;;;;;;-1.82;100.00;100933.03;5034196;28;20272;-62
2024/01/08 05:59:30;;;;;;;3.50;2.10;;;;;;;-1.84;100.00;100937.22;5033472;28;20183;-62
2024/01/08 06:01:55;;;;;;;2.53;2.07;;;;;;;-1.85;100.00;100938.91;5053628;28;20227;-62
2024/01/08 06:04:20;;;;;;;3.07;1.90;;;;;;;-1.90;100.00;100948.06;5036607;28;20640;-63
2024/01/08 06:06:48;;;;;;;2.67;2.20;;;;;;;-1.89;100.00;100942.19;5034197;28;20324;-62
2024/01/08 06:09:14;;;;;;;2.10;2.00;;;;;;;-1.87;100.00;100943.06;5034690;28;20182;-62
2024/01/08 06:11:40;;;;;;;2.50;2.10;;;;;;;-1.85;100.00;100941.41;5049573;28;20228;-62
2024/01/08 06:14:06;;;;;;;2.70;2.33;;;;;;;-1.81;100.00;100937.22;5036423;28;20262;-62
2024/01/08 06:16:35;;;;;;;2.27;1.90;;;;;;;-1.83;100.00;100933.84;5034133;28;20186;-63
2024/01/08 06:19:02;;;;;;;3.73;2.50;;;;;;;-1.82;100.00;100936.38;5032792;28;20221;-63
2024/01/08 06:21:27;;;;;;;3.20;2.37;;;;;;;-1.78;100.00;100937.28;5046176;28;20307;-62
2024/01/08 06:23:53;;;;;;;3.10;2.70;;;;;;;-1.88;100.00;100938.84;5037674;28;20260;-62
2024/01/08 06:26:18;;;;;;;2.93;2.13;;;;;;;-1.90;100.00;100944.72;5064668;28;20568;-62
2024/01/08 06:28:43;;;;;;;2.20;2.00;;;;;;;-1.90;100.00;100942.19;5033834;28;20178;-62
2024/01/08 06:31:08;;;;;;;2.70;2.27;;;;;;;-1.90;100.00;100968.25;5041353;28;20726;-62
2024/01/08 06:33:34;;;;;;;2.83;2.53;;;;;;;-1.96;100.00;100946.34;5039510;28;20170;-61
2024/01/08 06:35:59;;;;;;;2.73;2.30;;;;;;;-1.97;100.00;100957.25;5033710;28;20186;-62
2024/01/08 06:38:25;;;;;;;2.30;2.10;;;;;;;-1.98;100.00;100944.63;5032691;28;20178;-61
2024/01/08 06:40:50;;;;;;;2.40;2.20;;;;;;;-1.95;100.00;100939.63;5031448;28;20224;-61
2024/01/08 06:43:15;;;;;;;7.67;2.70;;;;;;;-1.95;100.00;100948.03;5052171;28;20669;-63
2024/01/08 06:45:41;;;;;;;4.17;2.97;;;;;;;-1.90;100.00;100942.19;5030692;28;20237;-63
2024/01/08 06:48:06;;;;;;;5.10;2.70;;;;;;;-1.93;100.00;100943.00;5033521;28;20285;-62
2024/01/08 06:50:31;;;;;;;2.93;2.53;;;;;;;-1.93;100.00;100949.72;5034271;28;20228;-64
2024/01/08 06:52:57;;;;;;;3.40;2.70;;;;;;;-1.88;100.00;100945.59;5043607;28;20254;-62
2024/01/08 06:55:22;;;;;;;2.10;2.00;;;;;;;-1.84;100.00;100943.09;5033298;28;20201;-63
2024/01/08 06:57:49;;;;;;;2.97;2.37;;;;;;;-1.89;100.00;100944.72;5033344;28;20589;-62
2024/01/08 07:00:15;;;;;;;2.80;2.27;;;;;;;-1.89;100.00;100939.69;5026368;28;20182;-62
2024/01/08 07:02:41;;;;;;;2.83;2.47;;;;;;;-1.88;100.00;100945.59;5046047;28;20194;-63
2024/01/08 07:05:06;;;;;;;4.07;2.47;;;;;;;-1.95;100.00;100953.09;5032873;28;20189;-63
2024/01/08 07:07:32;;;;;;;2.03;1.83;;;;;;;-1.87;100.00;100953.16;5033209;28;20193;-62
2024/01/08 07:09:57;;;;;;;3.40;2.83;;;;;;;-1.86;100.00;100948.94;5033084;28;20205;-62
2024/01/08 07:12:22;;;;;;;2.40;2.20;;;;;;;-1.89;100.00;100957.31;5054501;28;20232;-62
2024/01/08 07:14:48;;;;;;;2.20;2.03;;;;;;;-1.89;100.00;100952.28;5032725;28;20210;-62
2024/01/08 07:17:13;;;;;;;2.70;2.40;;;;;;;-1.87;100.00;100960.72;5033127;28;20284;-62
2024/01/08 07:19:38;;;;;;;2.60;2.40;;;;;;;-1.96;100.00;100963.13;5031654;28;20188;-62
2024/01/08 07:22:04;;;;;;;3.23;2.80;;;;;;;-2.02;100.00;100958.88;5053996;28;20665;-62
2024/01/08 07:24:29;;;;;;;3.03;2.60;;;;;;;-1.99;100.00;100960.59;5031375;28;20193;-64
2024/01/08 07:26:54;;;;;;;3.23;2.93;;;;;;;-2.00;100.00;100972.38;5032111;28;20225;-61
2024/01/08 07:29:20;;;;;;;2.67;2.43;;;;;;;-2.02;100.00;100968.97;5031599;28;20252;-61
2024/01/08 07:31:45;;;;;;;3.07;2.63;;;;;;;-2.05;100.00;100971.44;5037504;28;20694;-61
2024/01/08 07:34:11;;;;;;;2.60;2.40;;;;;;;-2.09;100.00;100969.72;5033725;28;20181;-61
2024/01/08 07:36:36;;;;;;;3.57;2.60;;;;;;;-2.07;100.00;100973.13;5032479;28;20695;-61
2024/01/08 07:39:01;;;;;;;3.60;2.70;;;;;;;-2.09;100.00;100976.44;5032051;28;20636;-61
2024/01/08 07:41:27;;;;;;;2.80;2.57;;;;;;;-2.06;100.00;100986.56;5034706;28;20314;-61
2024/01/08 07:43:52;;;;;;;2.70;2.50;;;;;;;-2.15;100.00;100993.16;5041492;28;20174;-61
2024/01/08 07:46:18;;;;;;;2.27;2.07;;;;;;;-2.16;100.00;100990.63;5027257;28;20225;-61
2024/01/08 07:48:43;;;;;;;3.53;2.43;;;;;;;-2.19;100.00;100990.63;5035394;28;20185;-61
2024/01/08 07:51:10;;;;;;;3.83;2.63;;;;;;;-2.20;100.00;100987.22;5041079;28;20590;-61
2024/01/08 07:53:36;;;;;;;2.30;2.10;;;;;;;-2.15;100.00;100997.38;5037516;28;20183;-64
2024/01/08 07:56:02;;;;;;;2.67;2.20;;;;;;;-2.21;100.00;101005.69;5032379;28;20287;-63
2024/01/08 07:58:27;;;;;;;3.33;2.30;;;;;;;-2.24;100.00;101014.94;5063985;28;20286;-61
2024/01/08 08:00:53;;;;;;;3.40;2.23;;;;;;;-2.22;100.00;100996.47;5035170;28;20224;-62
2024/01/08 08:03:18;;;;;;;3.13;2.10;;;;;;;-2.24;100.00;101005.69;5050038;28;20201;-62
2024/01/08 08:05:43;;;;;;;2.30;2.10;;;;;;;-2.18;100.00;101004.91;5040920;28;20231;-62
2024/01/08 08:08:08;;;;;;;4.33;3.13;;;;;;;-2.17;100.00;101004.06;5031799;28;20212;-62
2024/01/08 08:10:34;;;;;;;3.63;2.70;;;;;;;-2.20;100.00;101011.59;5029939;28;20235;-62
2024/01/08 08:13:01;;;;;;;4.23;2.90;;;;;;;-2.16;100.00;101009.16;5042085;28;20313;-62
2024/01/08 08:15:26;;;;;;;2.83;2.43;;;;;;;-2.10;100.00;101015.94;5026673;28;20245;-61
2024/01/08 08:17:51;;;;;;;6.17;3.50;;;;;;;-2.19;100.00;101009.09;5063446;28;20647;-61
2024/01/08 08:20:17;;;;;;;4.70;3.03;;;;;;;-2.12;100.00;101008.34;5025140;28;20304;-62
2024/01/08 08:22:42;;;;;;;2.77;2.10;;;;;;;-2.08;100.00;101021.84;5058906;28;20235;-63
2024/01/08 08:25:07;;;;;;;3.07;2.37;;;;;;;-2.17;100.00;101035.19;5031167;28;20194;-61
2024/01/08 08:27:34;;;;;;;2.37;2.07;;;;;;;-2.22;100.00;101030.91;5063678;28;20233;-61
2024/01/08 08:30:00;;;;;;;3.87;2.90;;;;;;;-2.18;100.00;101020.88;5030106;28;20181;-62
2024/01/08 08:32:25;;;;;;;3.30;2.77;;;;;;;-2.15;100.00;101032.66;5015665;28;20226;-62
2024/01/08 08:34:50;;;;;;;4.87;3.00;;;;;;;-2.09;100.00;101034.44;5029997;28;20641;-62
2024/01/08 08:37:16;;;;;;;2.97;2.40;;;;;;;-2.21;98.71;101033.44;5030121;28;20193;-62
2024/01/08 08:39:41;;;;;;;3.43;2.40;;;;;;;-2.35;99.75;101023.16;5031314;28;20213;-62
2024/01/08 08:42:07;;;;;;;3.17;2.40;;;;;;;-2.36;99.60;101046.69;5052475;28;20675;-62
2024/01/08 08:44:33;;;;;;;3.07;2.77;;;;;;;-2.32;100.00;101037.47;5044347;28;20208;-62
2024/01/08 08:46:59;;;;;;;5.80;2.90;;;;;;;-2.23;99.53;101041.81;5030009;28;20198;-62
2024/01/08 08:49:25;;;;;;;3.53;2.77;;;;;;;-2.19;100.00;101041.88;5034176;28;20189;-62
2024/01/08 08:51:50;;;;;;;3.80;3.10;;;;;;;-2.20;99.59;101046.91;5049433;28;20223;-62
2024/01/08 08:54:16;;;;;;;4.20;2.90;;;;;;;-2.41;100.00;101047.44;5034110;28;20544;-62
2024/01/08 08:56:42;;;;;;;2.83;2.53;;;;;;;-2.48;100.00;101047.38;5031327;28;20518;-63
2024/01/08 08:59:07;;;;;;;5.07;3.07;;;;;;;-2.59;100.00;101048.88;5031120;28;20261;-62
2024/01/08 09:01:32;;;;;;;4.33;2.80;;;;;;;-2.66;100.00;101058.00;5044429;28;20227;-62
2024/01/08 09:03:58;;;;;;;6.23;3.37;;;;;;;-2.67;100.00;101060.50;5021351;28;20185;-62
2024/01/08 09:06:24;;;;;;;5.93;3.20;;;;;;;-2.64;100.00;101060.56;5031192;28;20200;-62
2024/01/08 09:08:53;;;;;;;6.70;3.50;;;;;;;-2.27;99.08;101061.94;5030529;28;20253;-62
2024/01/08 09:11:19;;;;;;;5.23;3.10;;;;;;;-1.84;95.41;101056.59;5040997;28;20278;-62
2024/01/08 09:13:44;;;;;;;4.07;3.57;;;;;;;-1.03;88.46;101050.69;5035036;28;20645;-63
2024/01/08 09:16:10;;;;;;;4.67;3.00;;;;;;;-0.18;81.98;101055.47;5063184;28;20182;-62
2024/01/08 09:18:36;;;;;;;5.20;2.80;;;;;;;-0.02;72.42;101059.75;5030673;28;20195;-63
2024/01/08 09:21:01;;;;;;;3.80;3.00;;;;;;;1.02;72.84;101054.97;5030409;28;20226;-63
2024/01/08 09:23:26;;;;;;;4.73;3.20;;;;;;;0.67;66.88;101057.44;5046452;28;20178;-63
2024/01/08 09:25:52;;;;;;;4.90;3.37;;;;;;;0.60;63.90;101067.56;5029783;28;20182;-63
2024/01/08 09:28:18;;;;;;;3.77;2.90;;;;;;;0.73;64.36;101070.13;5030925;28;20245;-63
2024/01/08 09:30:43;;;;;;;5.33;3.83;;;;;;;1.36;62.05;101067.63;5027849;28;20251;-62
2024/01/08 09:33:08;;;;;;;3.93;2.70;;;;;;;2.05;58.72;101070.88;5039971;28;20699;-62
2024/01/08 09:35:33;;;;;;;3.80;2.70;;;;;;;0.85;59.26;101076.91;5031167;28;20190;-62
2024/01/08 09:37:59;;;;;;;3.67;3.10;;;;;;;0.18;62.85;101069.13;5028494;28;20178;-62
2024/01/08 09:40:24;;;;;;;4.67;2.83;;;;;;;0.88;62.09;101066.78;5026743;28;20232;-63
2024/01/08 09:42:52;;;;;;;3.60;2.90;;;;;;;0.50;60.24;101082.72;5042340;28;20256;-63
2024/01/08 09:45:22;;;;;;;3.23;2.80;;;;;;;0.06;62.82;101072.44;5029719;28;20313;-63
2024/01/08 09:47:48;;;;;;;2.70;2.50;;;;;;;0.24;62.35;101073.38;5030636;28;20221;-63
2024/01/08 09:50:15;;;;;;;3.20;2.90;;;;;;;0.81;61.01;101073.53;5022200;28;20621;-63
2024/01/08 09:52:42;;;;;;;5.27;3.10;;;;;;;-0.10;64.30;101071.56;5043562;28;20224;-63
2024/01/08 09:55:09;;;;;;;3.10;2.80;;;;;;;-0.51;66.38;101065.41;5031018;28;20193;-62
2024/01/08 09:57:34;;;;;;;3.97;3.17;;;;;;;-0.33;68.11;101063.81;5062854;28;20588;-63
2024/01/08 10:00:00;;;;;;;3.80;2.70;;;;;;;-0.80;71.35;101077.81;5031573;28;20213;-64
2024/01/08 10:02:25;;;;;;;4.90;2.80;;;;;;;-0.94;75.48;101064.22;5055641;28;20233;-62
2024/01/08 10:04:51;;;;;;;3.50;2.80;;;;;;;-0.02;71.19;101069.88;5032514;28;20192;-62
2024/01/08 10:07:17;;;;;;;4.60;3.20;;;;;;;-0.59;70.37;101066.19;5032719;28;20202;-63
2024/01/08 10:09:42;;;;;;;4.33;3.20;;;;;;;-0.43;69.95;101062.91;5066067;28;20552;-62
2024/01/08 10:12:08;;;;;;;3.13;2.60;;;;;;;-1.14;75.23;101060.69;5055814;28;20219;-63
2024/01/08 10:14:34;;;;;;;3.43;2.80;;;;;;;-1.09;76.95;101065.78;5034053;28;20243;-63
2024/01/08 10:16:59;;;;;;;3.20;2.37;;;;;;;-1.54;80.34;101062.84;5033952;28;20173;-63
2024/01/08 10:19:25;;;;;;;3.57;3.10;;;;;;;-1.85;83.22;101065.00;5043712;28;20189;-63
2024/01/08 10:22:05;;;;;;;3.83;2.67;;;;;;;-2.02;82.37;101059.75;5042855;28;20233;-62
2024/01/08 10:24:31;;;;;;;2.97;2.50;;;;;;;-2.17;78.37;101067.09;5034370;28;20191;-64
2024/01/08 10:26:56;;;;;;;3.07;2.60;;;;;;;-2.28;79.25;101072.84;5033824;28;20566;-64
2024/01/08 10:29:21;;;;;;;3.73;3.03;;;;;;;-2.33;79.65;101071.94;5034359;28;20228;-63
2024/01/08 10:31:46;;;;;;;4.23;2.30;;;;;;;-2.36;81.40;101068.53;5051247;28;20577;-62
2024/01/08 10:34:13;;;;;;;7.23;3.17;;;;;;;-2.51;82.75;101077.53;5031901;28;20182;-63
2024/01/08 10:36:41;;;;;;;2.87;2.57;;;;;;;-2.44;82.84;101086.06;5034032;28;20175;-63
2024/01/08 10:39:06;;;;;;;5.10;3.10;;;;;;;-2.38;83.53;101072.69;5032347;28;20225;-63
2024/01/08 10:41:32;;;;;;;3.77;2.70;;;;;;;-2.36;83.66;101078.59;5037132;28;20236;-62
2024/01/08 10:43:57;;;;;;;3.93;2.67;;;;;;;-2.28;84.21;101074.53;5041881;28;20186;-64
2024/01/08 10:46:27;;;;;;;3.73;2.50;;;;;;;-2.35;83.91;101082.81;5033170;28;20225;-63
2024/01/08 10:48:52;;;;;;;4.83;2.87;;;;;;;-2.46;83.65;101075.94;5036100;28;20186;-62
2024/01/08 10:51:18;;;;;;;6.40;3.07;;;;;;;-2.58;83.54;101074.91;5034822;28;20232;-64
2024/01/08 10:53:45;;;;;;;4.27;3.10;;;;;;;-2.54;84.04;101066.56;5044805;28;20171;-63
2024/01/08 10:56:14;;;;;;;4.90;3.30;;;;;;;-2.45;83.93;101075.09;5031984;28;20816;-63
2024/01/08 10:58:48;;;;;;;3.87;2.67;;;;;;;-2.46;83.69;101068.38;5031873;28;20178;-62
2024/01/08 11:01:14;;;;;;;3.00;2.70;;;;;;;-2.33;86.10;101074.44;5041978;28;20231;-62
2024/01/08 11:03:39;;;;;;;5.78;3.80;;;;;;;-2.23;85.86;101075.44;5045550;28;20409;-63
2024/01/08 11:06:06;;;;;;;6.40;3.40;;;;;;;-2.25;83.35;101066.16;5033364;28;20189;-63
2024/01/08 11:08:33;;;;;;;3.47;3.17;;;;;;;-2.05;83.27;101073.97;5031852;28;20596;-63
2024/01/08 11:11:05;;;;;;;2.67;2.47;;;;;;;-2.35;79.49;101073.56;5032150;28;20259;-62
2024/01/08 11:13:31;;;;;;;5.70;3.43;;;;;;;-2.43;79.14;101085.25;5046937;28;20293;-63